Terminal Aerodrome Forecast
Issued by NWS Shreveport, LA

Home | Current Version | Previous Version | Text Only | Print | Product List | Glossary On
Versions: 1 2 3 4 5 6 7 8 9 10 11 12 13
000
FTUS44 KSHV 281100 RRA
TAFGGG
TAF
KGGG 281140Z 2812/2912 32008KT P6SM -RA OVC020
      TEMPO 2812/2816 4SM -RA BR OVC007
     FM281600 35006KT P6SM BKN007 OVC015
     FM282100 33005KT P6SM OVC015
     FM290300 00000KT P6SM SCT050 BKN250
     FM290600 00000KT P6SM OVC015=

USA.gov is the U.S. government's official web portal to all federal, state and local government web resources and services.